Time;durP1;ratioP1;P1;durP2;ratioP2;P2;SDS_P1;SDS_P2;PMS_P1;PMS_P2;Temp;Humidity;BMP_temperature;BMP_pressure;BME280_temperature;BME280_humidity;BME280_pressure;Samples;Min_cycle;Max_cycle;Signal;HPM_P1;HPM_P2
2024/02/21 00:02:20;;;;;;;32.90;15.27;;;;;;;;;;5051507;28;20075;-79
2024/02/21 00:04:46;;;;;;;37.42;17.10;;;;;;;;;;5051302;28;20477;-79
2024/02/21 00:07:12;;;;;;;35.30;17.42;;;;;;;;;;5051507;28;20051;-81
2024/02/21 00:09:38;;;;;;;38.45;18.52;;;;;;;;;;5051289;28;20061;-81
2024/02/21 00:12:05;;;;;;;32.33;15.77;;;;;;;;;;5051373;28;20039;-80
2024/02/21 00:14:31;;;;;;;30.40;13.65;;;;;;;;;;5052870;28;20067;-80
2024/02/21 00:16:57;;;;;;;29.50;15.38;;;;;;;;;;5051486;28;20059;-79
2024/02/21 00:19:23;;;;;;;34.42;16.02;;;;;;;;;;5053090;28;20025;-79
2024/02/21 00:21:49;;;;;;;29.35;15.20;;;;;;;;;;5051415;28;20036;-79
2024/02/21 00:24:16;;;;;;;29.27;15.52;;;;;;;;;;5052554;28;20024;-80
2024/02/21 00:26:42;;;;;;;39.50;18.35;;;;;;;;;;5051358;28;20032;-78
2024/02/21 00:29:08;;;;;;;37.53;16.83;;;;;;;;;;5051058;28;20385;-78
2024/02/21 00:31:34;;;;;;;39.83;19.15;;;;;;;;;;5052597;28;20445;-79
2024/02/21 00:34:00;;;;;;;34.42;16.48;;;;;;;;;;5052093;28;20029;-82
2024/02/21 00:36:26;;;;;;;27.73;15.15;;;;;;;;;;5051325;28;20540;-84
2024/02/21 00:38:52;;;;;;;34.72;16.20;;;;;;;;;;5051407;28;20021;-84
2024/02/21 00:41:18;;;;;;;30.38;16.40;;;;;;;;;;5051169;28;20029;-82
2024/02/21 00:43:44;;;;;;;29.63;13.68;;;;;;;;;;5050918;28;20025;-82
2024/02/21 00:46:10;;;;;;;36.65;18.73;;;;;;;;;;5050634;28;20521;-82
2024/02/21 00:48:36;;;;;;;36.10;18.13;;;;;;;;;;5050857;28;20127;-82
2024/02/21 00:51:02;;;;;;;33.53;16.15;;;;;;;;;;5050620;28;20068;-80
2024/02/21 00:53:28;;;;;;;30.15;16.45;;;;;;;;;;5051164;28;20465;-83
2024/02/21 00:55:56;;;;;;;24.88;13.45;;;;;;;;;;5051035;28;20028;-82
2024/02/21 00:58:22;;;;;;;37.30;18.02;;;;;;;;;;5050935;28;20051;-83
2024/02/21 01:00:48;;;;;;;30.15;14.68;;;;;;;;;;5050843;28;20052;-81
2024/02/21 01:03:14;;;;;;;46.13;20.27;;;;;;;;;;5050772;28;20065;-81
2024/02/21 01:05:40;;;;;;;37.95;15.52;;;;;;;;;;5051003;28;20029;-82
2024/02/21 01:08:06;;;;;;;33.30;17.08;;;;;;;;;;5051714;28;20048;-81
2024/02/21 01:10:32;;;;;;;35.30;18.55;;;;;;;;;;5051238;28;20033;-81
2024/02/21 01:12:58;;;;;;;31.92;13.95;;;;;;;;;;5051184;28;20032;-80
2024/02/21 01:15:25;;;;;;;31.35;15.60;;;;;;;;;;5052286;28;20021;-82
2024/02/21 01:17:54;;;;;;;27.35;14.35;;;;;;;;;;5055161;28;20473;-82
2024/02/21 01:20:20;;;;;;;27.45;14.15;;;;;;;;;;5054748;28;20183;-78
2024/02/21 01:22:46;;;;;;;34.60;16.75;;;;;;;;;;5054489;28;20024;-78
2024/02/21 01:25:12;;;;;;;31.25;15.25;;;;;;;;;;5056024;28;20411;-79
2024/02/21 01:27:38;;;;;;;35.38;14.10;;;;;;;;;;5054720;28;20033;-80
2024/02/21 01:30:05;;;;;;;31.05;12.52;;;;;;;;;;5054271;28;20025;-80
2024/02/21 01:32:31;;;;;;;22.17;12.88;;;;;;;;;;5055605;28;20032;-80
2024/02/21 01:34:57;;;;;;;34.13;15.50;;;;;;;;;;5054698;28;20025;-80
2024/02/21 01:37:23;;;;;;;39.65;17.55;;;;;;;;;;5054369;28;20025;-80
2024/02/21 01:39:50;;;;;;;30.98;13.98;;;;;;;;;;5055480;28;20075;-81
2024/02/21 01:42:16;;;;;;;31.42;16.02;;;;;;;;;;5054103;28;20075;-80
2024/02/21 01:44:42;;;;;;;27.90;15.10;;;;;;;;;;5055514;28;20045;-77
2024/02/21 01:47:08;;;;;;;35.28;19.02;;;;;;;;;;5054440;28;20147;-79
2024/02/21 01:49:35;;;;;;;35.80;15.88;;;;;;;;;;5054593;28;20025;-80
2024/02/21 01:52:02;;;;;;;33.70;15.20;;;;;;;;;;5054720;28;20094;-79
2024/02/21 01:54:31;;;;;;;31.50;15.90;;;;;;;;;;5054323;28;20025;-80
2024/02/21 01:56:57;;;;;;;31.90;15.45;;;;;;;;;;5054723;28;20353;-81
2024/02/21 01:59:23;;;;;;;33.10;17.38;;;;;;;;;;5055195;28;20025;-82
2024/02/21 02:01:50;;;;;;;45.30;19.48;;;;;;;;;;5055790;28;20037;-81
2024/02/21 02:04:16;;;;;;;32.22;14.15;;;;;;;;;;5053867;28;20052;-85
2024/02/21 02:06:42;;;;;;;23.20;12.32;;;;;;;;;;5054307;28;20465;-83
2024/02/21 02:09:08;;;;;;;26.80;14.18;;;;;;;;;;5053568;28;20060;-80
2024/02/21 02:11:35;;;;;;;27.70;14.05;;;;;;;;;;5053602;28;20116;-80
2024/02/21 02:14:01;;;;;;;30.63;15.30;;;;;;;;;;5053544;28;20032;-81
2024/02/21 02:16:27;;;;;;;38.55;17.10;;;;;;;;;;5053839;28;20032;-82
2024/02/21 02:18:53;;;;;;;37.67;16.63;;;;;;;;;;5053604;28;20473;-82
2024/02/21 02:21:29;;;;;;;35.15;15.52;;;;;;;;;;5055416;28;20365;-81
2024/02/21 02:23:55;;;;;;;30.50;16.23;;;;;;;;;;5053953;28;20028;-84
2024/02/21 02:26:21;;;;;;;32.78;16.15;;;;;;;;;;5053610;28;20029;-84
2024/02/21 02:28:47;;;;;;;30.17;14.88;;;;;;;;;;5053843;28;20037;-81
2024/02/21 02:31:13;;;;;;;31.88;15.85;;;;;;;;;;5053066;28;20021;-81
2024/02/21 02:33:39;;;;;;;34.22;15.10;;;;;;;;;;5053574;28;20059;-80
2024/02/21 02:36:06;;;;;;;36.30;14.73;;;;;;;;;;5055131;28;20024;-80
2024/02/21 02:38:32;;;;;;;29.63;13.38;;;;;;;;;;5054689;28;20380;-79
2024/02/21 02:40:58;;;;;;;27.48;13.40;;;;;;;;;;5054062;28;20488;-82
2024/02/21 02:43:24;;;;;;;41.50;17.98;;;;;;;;;;5055561;28;20029;-80
2024/02/21 02:45:50;;;;;;;29.80;14.38;;;;;;;;;;5056860;28;20074;-80
2024/02/21 02:48:16;;;;;;;32.67;15.10;;;;;;;;;;5059382;28;20028;-80
2024/02/21 02:50:42;;;;;;;28.88;14.60;;;;;;;;;;5054908;28;20469;-80
2024/02/21 02:53:08;;;;;;;34.00;15.60;;;;;;;;;;5052987;28;20413;-79
2024/02/21 02:55:35;;;;;;;31.10;14.35;;;;;;;;;;5053225;28;20377;-79
2024/02/21 02:58:01;;;;;;;36.80;14.40;;;;;;;;;;5053130;28;20028;-81
2024/02/21 03:00:27;;;;;;;25.38;14.23;;;;;;;;;;5052948;28;20080;-82
2024/02/21 03:02:53;;;;;;;32.72;15.05;;;;;;;;;;5053211;28;20400;-81
2024/02/21 03:05:20;;;;;;;29.20;15.18;;;;;;;;;;5053024;28;20366;-82
2024/02/21 03:07:46;;;;;;;32.05;15.90;;;;;;;;;;5053428;28;20028;-81
2024/02/21 03:10:13;;;;;;;32.88;16.58;;;;;;;;;;5052408;28;20056;-82
2024/02/21 03:12:39;;;;;;;31.75;15.90;;;;;;;;;;5054217;28;20021;-80
2024/02/21 03:15:05;;;;;;;26.73;13.90;;;;;;;;;;5052754;28;20411;-82
2024/02/21 03:17:32;;;;;;;34.40;13.57;;;;;;;;;;5052593;28;20032;-81
2024/02/21 03:20:01;;;;;;;34.13;17.63;;;;;;;;;;5052813;28;20028;-82
2024/02/21 03:22:27;;;;;;;33.50;15.80;;;;;;;;;;5052606;28;20472;-81
2024/02/21 03:24:53;;;;;;;28.67;13.75;;;;;;;;;;5054241;28;20029;-80
2024/02/21 03:27:19;;;;;;;25.67;12.07;;;;;;;;;;5052416;28;20025;-79
2024/02/21 03:29:45;;;;;;;22.42;12.77;;;;;;;;;;5052488;28;20033;-80
2024/02/21 03:32:11;;;;;;;30.45;13.80;;;;;;;;;;5052187;28;20445;-79
2024/02/21 03:34:37;;;;;;;30.02;15.52;;;;;;;;;;5052469;28;20377;-79
2024/02/21 03:37:03;;;;;;;27.92;13.30;;;;;;;;;;5054020;28;20461;-80
2024/02/21 03:39:32;;;;;;;29.25;14.75;;;;;;;;;;5053065;28;20035;-80
2024/02/21 03:42:04;;;;;;;27.77;14.65;;;;;;;;;;5052370;28;20167;-80
2024/02/21 03:44:31;;;;;;;32.45;15.23;;;;;;;;;;5052212;28;20037;-82
2024/02/21 03:46:57;;;;;;;26.70;11.80;;;;;;;;;;5052495;28;20047;-84
2024/02/21 03:49:23;;;;;;;28.83;12.63;;;;;;;;;;5053536;28;20037;-82
2024/02/21 03:51:49;;;;;;;30.77;13.45;;;;;;;;;;5052375;28;20036;-82
2024/02/21 03:54:15;;;;;;;24.80;11.52;;;;;;;;;;5052105;28;20029;-82
2024/02/21 03:56:41;;;;;;;29.13;13.27;;;;;;;;;;5052403;28;20493;-81
2024/02/21 03:59:08;;;;;;;23.27;11.75;;;;;;;;;;5052730;28;20105;-81
2024/02/21 04:01:34;;;;;;;26.85;13.00;;;;;;;;;;5054988;28;20021;-81
2024/02/21 04:04:00;;;;;;;24.00;13.45;;;;;;;;;;5052429;28;20393;-80
2024/02/21 04:06:29;;;;;;;26.45;10.68;;;;;;;;;;5052803;28;20025;-80
2024/02/21 04:08:55;;;;;;;25.73;12.77;;;;;;;;;;5051793;28;20045;-80
2024/02/21 04:11:21;;;;;;;24.33;12.20;;;;;;;;;;5053072;28;20024;-80
2024/02/21 04:13:49;;;;;;;25.70;12.43;;;;;;;;;;5052068;28;20071;-80
2024/02/21 04:16:16;;;;;;;24.95;12.15;;;;;;;;;;5051585;28;20480;-80
2024/02/21 04:18:42;;;;;;;20.58;10.43;;;;;;;;;;5051893;28;20029;-80
2024/02/21 04:21:08;;;;;;;19.42;8.88;;;;;;;;;;5051897;28;20116;-83
2024/02/21 04:23:34;;;;;;;19.55;9.77;;;;;;;;;;5052974;28;20048;-82
2024/02/21 04:26:00;;;;;;;27.90;10.57;;;;;;;;;;5051707;28;20025;-82
2024/02/21 04:28:27;;;;;;;26.90;10.20;;;;;;;;;;5052635;28;20369;-81
2024/02/21 04:30:53;;;;;;;27.45;10.27;;;;;;;;;;5051005;28;20021;-82
2024/02/21 04:33:19;;;;;;;23.65;10.50;;;;;;;;;;5051269;28;20021;-82
2024/02/21 04:35:45;;;;;;;21.60;9.77;;;;;;;;;;5051501;28;20021;-82
2024/02/21 04:38:11;;;;;;;24.38;10.32;;;;;;;;;;5051529;28;20032;-82
2024/02/21 04:40:37;;;;;;;23.67;10.68;;;;;;;;;;5051375;28;20032;-82
2024/02/21 04:43:03;;;;;;;23.65;9.50;;;;;;;;;;5051518;28;20531;-82
2024/02/21 04:45:29;;;;;;;22.10;9.90;;;;;;;;;;5052926;28;20102;-83
2024/02/21 04:47:55;;;;;;;27.50;9.70;;;;;;;;;;5052943;28;20036;-84
2024/02/21 04:50:21;;;;;;;25.17;9.38;;;;;;;;;;5052683;28;20041;-83
2024/02/21 04:52:47;;;;;;;17.33;9.23;;;;;;;;;;5052046;28;20021;-83
2024/02/21 04:55:13;;;;;;;22.42;8.18;;;;;;;;;;5052448;28;20033;-82
2024/02/21 04:57:39;;;;;;;21.80;10.27;;;;;;;;;;5052647;28;20163;-82
2024/02/21 05:00:08;;;;;;;20.75;10.05;;;;;;;;;;5060216;28;20025;-81
2024/02/21 05:02:34;;;;;;;19.30;7.07;;;;;;;;;;5055069;28;20021;-80
2024/02/21 05:05:00;;;;;;;14.50;7.63;;;;;;;;;;5051150;28;20021;-82
2024/02/21 05:07:26;;;;;;;21.98;11.23;;;;;;;;;;5050756;28;20062;-81
2024/02/21 05:09:52;;;;;;;19.75;9.80;;;;;;;;;;5050515;28;20048;-85
2024/02/21 05:12:18;;;;;;;18.77;8.30;;;;;;;;;;5052135;28;20021;-84
2024/02/21 05:14:44;;;;;;;25.50;8.65;;;;;;;;;;5051216;28;20032;-84
2024/02/21 05:17:10;;;;;;;18.45;9.32;;;;;;;;;;5051292;28;20362;-84
2024/02/21 05:19:36;;;;;;;23.83;10.73;;;;;;;;;;5051051;28;20033;-82
2024/02/21 05:22:02;;;;;;;22.63;9.77;;;;;;;;;;5050881;28;20017;-81
2024/02/21 05:24:29;;;;;;;16.83;8.55;;;;;;;;;;5050575;28;20119;-81
2024/02/21 05:26:55;;;;;;;16.30;9.40;;;;;;;;;;5050839;28;20376;-80
2024/02/21 05:29:21;;;;;;;18.10;9.73;;;;;;;;;;5050610;28;20040;-80
2024/02/21 05:31:53;;;;;;;20.98;8.52;;;;;;;;;;5050811;28;20025;-80
2024/02/21 05:34:20;;;;;;;24.92;13.57;;;;;;;;;;5050698;28;20036;-80
2024/02/21 05:36:46;;;;;;;25.58;12.25;;;;;;;;;;5052287;28;20048;-80
2024/02/21 05:39:12;;;;;;;23.30;11.48;;;;;;;;;;5050907;28;20025;-80
2024/02/21 05:41:39;;;;;;;17.25;8.82;;;;;;;;;;5050555;28;20476;-79
2024/02/21 05:44:05;;;;;;;20.20;11.25;;;;;;;;;;5050767;28;20025;-80
2024/02/21 05:46:31;;;;;;;18.70;9.80;;;;;;;;;;5050392;28;20060;-81
2024/02/21 05:48:57;;;;;;;29.77;13.75;;;;;;;;;;5050722;28;20033;-80
2024/02/21 05:51:23;;;;;;;19.92;12.15;;;;;;;;;;5050740;28;20021;-81
2024/02/21 05:53:49;;;;;;;29.77;13.13;;;;;;;;;;5050934;28;20017;-82
2024/02/21 05:56:17;;;;;;;28.13;14.05;;;;;;;;;;5051045;28;20026;-81
2024/02/21 05:58:44;;;;;;;25.58;12.98;;;;;;;;;;5052430;28;20028;-84
2024/02/21 06:01:10;;;;;;;26.98;13.50;;;;;;;;;;5051832;28;20029;-82
2024/02/21 06:03:36;;;;;;;27.50;13.38;;;;;;;;;;5060030;28;20025;-81
2024/02/21 06:06:02;;;;;;;20.83;11.70;;;;;;;;;;5054078;28;20071;-79
2024/02/21 06:08:28;;;;;;;25.33;13.52;;;;;;;;;;5053497;28;20051;-80
2024/02/21 06:10:55;;;;;;;31.05;15.23;;;;;;;;;;5054010;28;20052;-81
2024/02/21 06:13:21;;;;;;;31.02;15.40;;;;;;;;;;5053799;28;20079;-81
2024/02/21 06:15:49;;;;;;;25.08;13.57;;;;;;;;;;5055220;28;20039;-82
2024/02/21 06:18:15;;;;;;;26.05;13.82;;;;;;;;;;5053482;28;20027;-79
2024/02/21 06:20:41;;;;;;;27.63;14.07;;;;;;;;;;5054590;28;20107;-81
2024/02/21 06:23:07;;;;;;;20.73;11.05;;;;;;;;;;5053726;28;20108;-81
2024/02/21 06:25:33;;;;;;;23.77;11.15;;;;;;;;;;5053237;28;20175;-81
2024/02/21 06:28:00;;;;;;;25.20;14.10;;;;;;;;;;5053589;28;20025;-81
2024/02/21 06:30:26;;;;;;;21.65;10.75;;;;;;;;;;5053361;28;20048;-82
2024/02/21 06:32:55;;;;;;;24.88;12.10;;;;;;;;;;5053305;28;20025;-81
2024/02/21 06:35:21;;;;;;;25.40;12.38;;;;;;;;;;5053013;28;20033;-81
2024/02/21 06:37:51;;;;;;;22.90;11.88;;;;;;;;;;5054018;28;20025;-85
2024/02/21 06:40:17;;;;;;;19.45;9.38;;;;;;;;;;5055463;28;20166;-85
2024/02/21 06:42:43;;;;;;;31.20;13.07;;;;;;;;;;5054094;28;20036;-85
2024/02/21 06:45:09;;;;;;;22.15;11.00;;;;;;;;;;5059373;28;20017;-84
2024/02/21 06:47:35;;;;;;;21.27;10.52;;;;;;;;;;5056660;28;20282;-83
2024/02/21 06:50:01;;;;;;;25.95;10.98;;;;;;;;;;5053630;28;20366;-84
2024/02/21 06:52:27;;;;;;;23.33;9.82;;;;;;;;;;5054565;28;20116;-83
2024/02/21 06:54:53;;;;;;;24.58;10.82;;;;;;;;;;5054354;28;20029;-84
2024/02/21 06:57:19;;;;;;;17.48;7.68;;;;;;;;;;5053553;28;20025;-84
2024/02/21 06:59:46;;;;;;;21.50;10.10;;;;;;;;;;5053620;28;20035;-83
2024/02/21 07:02:12;;;;;;;17.63;9.18;;;;;;;;;;5053236;28;20025;-82
2024/02/21 07:04:38;;;;;;;21.35;9.10;;;;;;;;;;5053096;28;20467;-84
2024/02/21 07:07:04;;;;;;;16.92;8.02;;;;;;;;;;5053250;28;20112;-83
2024/02/21 07:09:31;;;;;;;15.02;8.80;;;;;;;;;;5052956;28;20060;-85
2024/02/21 07:11:58;;;;;;;19.55;9.77;;;;;;;;;;5054079;28;20389;-85
2024/02/21 07:14:24;;;;;;;25.52;11.38;;;;;;;;;;5055916;28;20025;-85
2024/02/21 07:16:50;;;;;;;20.10;10.15;;;;;;;;;;5064948;28;20049;-81
2024/02/21 07:19:16;;;;;;;26.85;9.38;;;;;;;;;;5060173;28;20021;-79
2024/02/21 07:21:43;;;;;;;22.20;8.75;;;;;;;;;;5059598;28;20051;-82
2024/02/21 07:24:09;;;;;;;22.27;10.02;;;;;;;;;;5058794;28;20079;-84
2024/02/21 07:26:35;;;;;;;23.13;11.00;;;;;;;;;;5060039;28;20033;-86
2024/02/21 07:29:01;;;;;;;16.33;9.27;;;;;;;;;;5054346;28;20056;-85
2024/02/21 07:31:27;;;;;;;26.02;10.35;;;;;;;;;;5053715;28;20365;-88
2024/02/21 07:33:53;;;;;;;22.30;10.88;;;;;;;;;;5053040;28;20025;-83
2024/02/21 07:36:32;;;;;;;19.67;9.63;;;;;;;;;;5053091;28;20487;-85
2024/02/21 07:38:58;;;;;;;18.55;8.38;;;;;;;;;;5052925;28;20029;-84
2024/02/21 07:41:26;;;;;;;23.50;10.55;;;;;;;;;;5052747;28;20373;-86
2024/02/21 07:43:52;;;;;;;18.33;8.30;;;;;;;;;;5052741;28;20028;-82
2024/02/21 07:46:18;;;;;;;16.65;6.45;;;;;;;;;;5052282;28;20028;-81
2024/02/21 07:48:46;;;;;;;25.95;9.07;;;;;;;;;;5052404;28;20102;-82
2024/02/21 07:51:12;;;;;;;21.35;9.48;;;;;;;;;;5053990;28;20025;-82
2024/02/21 07:53:44;;;;;;;21.50;9.13;;;;;;;;;;5052181;28;20535;-82
2024/02/21 07:56:10;;;;;;;18.05;8.68;;;;;;;;;;5053048;28;20389;-84
2024/02/21 07:58:36;;;;;;;18.52;8.57;;;;;;;;;;5053800;28;20105;-82
2024/02/21 08:01:02;;;;;;;21.20;8.95;;;;;;;;;;5074292;28;20017;-82
2024/02/21 08:03:28;;;;;;;18.17;7.68;;;;;;;;;;5066277;28;20020;-83
2024/02/21 08:05:54;;;;;;;22.40;9.68;;;;;;;;;;5077527;28;20107;-82
2024/02/21 08:08:21;;;;;;;22.10;8.82;;;;;;;;;;5083717;28;20047;-83
2024/02/21 08:10:51;;;;;;;21.85;7.75;;;;;;;;;;5075638;28;20094;-83
2024/02/21 08:13:17;;;;;;;21.90;9.80;;;;;;;;;;5071730;28;20123;-83
2024/02/21 08:15:43;;;;;;;19.17;7.53;;;;;;;;;;5072909;28;20052;-83
2024/02/21 08:18:10;;;;;;;22.27;9.13;;;;;;;;;;5071766;28;20032;-84
2024/02/21 08:20:36;;;;;;;16.63;7.93;;;;;;;;;;5071430;28;20028;-83
2024/02/21 08:23:02;;;;;;;22.30;9.88;;;;;;;;;;5071593;28;20387;-83
2024/02/21 08:25:28;;;;;;;26.23;11.52;;;;;;;;;;5071323;28;20028;-85
2024/02/21 08:27:57;;;;;;;19.63;9.70;;;;;;;;;;5071701;28;20048;-84
2024/02/21 08:30:23;;;;;;;18.77;10.48;;;;;;;;;;5072761;28;20036;-84
2024/02/21 08:32:49;;;;;;;18.30;9.15;;;;;;;;;;5072201;28;20016;-84
2024/02/21 08:35:18;;;;;;;24.30;10.10;;;;;;;;;;5071766;28;20087;-85
2024/02/21 08:37:44;;;;;;;17.50;10.10;;;;;;;;;;5071675;28;20472;-84
2024/02/21 08:40:11;;;;;;;24.30;10.13;;;;;;;;;;5074772;28;20131;-81
2024/02/21 08:42:37;;;;;;;17.42;8.80;;;;;;;;;;5074181;28;20078;-84
2024/02/21 08:45:03;;;;;;;20.58;9.10;;;;;;;;;;5083740;28;20024;-85
2024/02/21 08:47:29;;;;;;;20.23;9.82;;;;;;;;;;5071951;28;20078;-85
2024/02/21 08:49:56;;;;;;;26.02;12.27;;;;;;;;;;5071632;28;20028;-86
2024/02/21 08:52:22;;;;;;;21.13;10.80;;;;;;;;;;5071957;28;20020;-88
2024/02/21 08:54:48;;;;;;;26.20;9.65;;;;;;;;;;5071794;28;20048;-90
2024/02/21 08:57:14;;;;;;;15.88;7.28;;;;;;;;;;5072887;28;20060;-89
2024/02/21 08:59:40;;;;;;;18.45;9.57;;;;;;;;;;5072782;28;20036;-89
2024/02/21 09:02:08;;;;;;;26.73;9.38;;;;;;;;;;5072016;28;20024;-87
2024/02/21 09:04:34;;;;;;;16.38;8.15;;;;;;;;;;5072286;28;20415;-89
2024/02/21 09:07:00;;;;;;;24.60;10.45;;;;;;;;;;5072774;28;20033;-89
2024/02/21 09:09:28;;;;;;;23.63;10.25;;;;;;;;;;5072094;28;20071;-88
2024/02/21 09:11:54;;;;;;;21.65;10.23;;;;;;;;;;5072142;28;20032;-89
2024/02/21 09:14:20;;;;;;;23.40;10.80;;;;;;;;;;5072251;28;20031;-89
2024/02/21 09:16:46;;;;;;;15.35;8.52;;;;;;;;;;5071877;28;20115;-87
2024/02/21 09:19:12;;;;;;;19.73;9.02;;;;;;;;;;5071723;28;20028;-88
2024/02/21 09:21:38;;;;;;;15.55;9.05;;;;;;;;;;5071611;28;20153;-87
2024/02/21 09:24:05;;;;;;;20.23;10.93;;;;;;;;;;5071538;28;20028;-89
2024/02/21 09:26:32;;;;;;;18.40;10.18;;;;;;;;;;5071701;28;20028;-88
2024/02/21 09:29:01;;;;;;;16.85;9.13;;;;;;;;;;5072196;28;20119;-87
2024/02/21 09:31:27;;;;;;;18.83;9.88;;;;;;;;;;5074432;28;20464;-88
2024/02/21 09:33:53;;;;;;;15.50;8.85;;;;;;;;;;5085953;28;20005;-88
2024/02/21 09:36:19;;;;;;;16.30;7.05;;;;;;;;;;5096689;28;20016;-88
2024/02/21 09:38:45;;;;;;;17.40;10.18;;;;;;;;;;5100403;28;20104;-88
2024/02/21 09:41:20;;;;;;;14.63;7.43;;;;;;;;;;5096848;28;20025;-88
2024/02/21 09:43:46;;;;;;;15.50;9.05;;;;;;;;;;5088560;28;20051;-89
2024/02/21 09:46:19;;;;;;;14.88;8.98;;;;;;;;;;5075792;28;20033;-88
2024/02/21 09:48:52;;;;;;;16.60;8.57;;;;;;;;;;5075506;28;20388;-89
2024/02/21 09:51:19;;;;;;;15.00;8.30;;;;;;;;;;5075505;28;20368;-87
2024/02/21 09:53:46;;;;;;;12.85;5.63;;;;;;;;;;5075349;28;20024;-89
2024/02/21 09:56:13;;;;;;;13.27;7.32;;;;;;;;;;5075742;28;20448;-89
2024/02/21 09:58:41;;;;;;;18.48;8.80;;;;;;;;;;5077676;28;20055;-89
2024/02/21 10:01:07;;;;;;;12.57;7.32;;;;;;;;;;5077938;28;20436;-89
2024/02/21 10:03:33;;;;;;;12.88;6.75;;;;;;;;;;5094527;28;20020;-89
2024/02/21 10:06:02;;;;;;;11.80;6.03;;;;;;;;;;5077730;28;20044;-89
2024/02/21 10:08:28;;;;;;;14.77;7.15;;;;;;;;;;5082532;28;20032;-89
2024/02/21 10:10:56;;;;;;;15.98;8.23;;;;;;;;;;5082481;28;20029;-88
2024/02/21 10:13:25;;;;;;;13.13;7.10;;;;;;;;;;5065910;28;20029;-86
2024/02/21 10:16:01;;;;;;;12.47;6.87;;;;;;;;;;5056010;28;20116;-87
2024/02/21 10:18:27;;;;;;;13.98;6.75;;;;;;;;;;5055705;28;20052;-88
2024/02/21 10:21:02;;;;;;;14.85;7.45;;;;;;;;;;5055025;28;20044;-90
2024/02/21 10:23:28;;;;;;;16.23;8.15;;;;;;;;;;5054849;28;20079;-90
2024/02/21 10:25:54;;;;;;;14.52;7.95;;;;;;;;;;5055498;28;20404;-90
2024/02/21 10:28:23;;;;;;;13.80;5.88;;;;;;;;;;5055261;28;20024;-89
2024/02/21 10:30:52;;;;;;;10.60;5.93;;;;;;;;;;5067256;28;20039;-88
2024/02/21 10:33:22;;;;;;;11.02;6.30;;;;;;;;;;5066708;28;20036;-89
2024/02/21 10:35:49;;;;;;;12.20;6.47;;;;;;;;;;5071528;28;20045;-89
2024/02/21 10:38:15;;;;;;;14.60;8.05;;;;;;;;;;5066914;28;20025;-88
2024/02/21 10:40:41;;;;;;;12.80;6.38;;;;;;;;;;5056238;28;20575;-89
2024/02/21 10:43:12;;;;;;;11.05;4.85;;;;;;;;;;5055201;28;20028;-89
2024/02/21 10:45:39;;;;;;;12.00;6.03;;;;;;;;;;5054436;28;20021;-89
2024/02/21 10:48:09;;;;;;;10.23;6.82;;;;;;;;;;5054190;28;20048;-89
2024/02/21 10:50:37;;;;;;;9.60;6.10;;;;;;;;;;5054144;28;20036;-89
2024/02/21 10:53:03;;;;;;;12.52;6.07;;;;;;;;;;5054507;28;20389;-89
2024/02/21 10:55:39;;;;;;;7.90;5.05;;;;;;;;;;5054287;28;20055;-88
2024/02/21 10:58:05;;;;;;;10.10;6.32;;;;;;;;;;5055595;28;20111;-89
2024/02/21 11:00:32;;;;;;;9.55;5.75;;;;;;;;;;5054888;28;20033;-88
2024/02/21 11:02:59;;;;;;;12.40;5.88;;;;;;;;;;5053528;28;20025;-89
2024/02/21 11:05:25;;;;;;;12.90;6.35;;;;;;;;;;5054410;28;20079;-88
2024/02/21 11:07:51;;;;;;;11.05;6.50;;;;;;;;;;5053842;28;20056;-86
2024/02/21 11:10:24;;;;;;;14.35;7.28;;;;;;;;;;5054005;28;20489;-88
2024/02/21 11:12:53;;;;;;;13.43;7.03;;;;;;;;;;5053809;28;20492;-88
2024/02/21 11:15:19;;;;;;;16.47;8.17;;;;;;;;;;5053694;28;20117;-87
2024/02/21 11:17:55;;;;;;;15.85;8.18;;;;;;;;;;5053278;28;20112;-87
2024/02/21 11:20:21;;;;;;;12.85;7.25;;;;;;;;;;5054026;28;20036;-87
2024/02/21 11:22:49;;;;;;;14.48;6.10;;;;;;;;;;5053393;28;20048;-87
2024/02/21 11:25:21;;;;;;;15.18;7.78;;;;;;;;;;5054369;28;20128;-87
2024/02/21 11:27:47;;;;;;;16.45;8.38;;;;;;;;;;5053250;28;20025;-87
2024/02/21 11:30:22;;;;;;;15.73;7.88;;;;;;;;;;5053170;28;20090;-86
2024/02/21 11:32:48;;;;;;;10.95;5.13;;;;;;;;;;5053103;28;20111;-85
2024/02/21 11:35:20;;;;;;;15.25;9.13;;;;;;;;;;5053207;28;20035;-86
2024/02/21 11:37:46;;;;;;;12.77;6.50;;;;;;;;;;5053155;28;20461;-87
2024/02/21 11:40:13;;;;;;;13.45;7.50;;;;;;;;;;5053516;28;20067;-87
2024/02/21 11:42:39;;;;;;;13.32;5.97;;;;;;;;;;5053105;28;20028;-87
2024/02/21 11:45:05;;;;;;;11.93;6.60;;;;;;;;;;5053753;28;20024;-87
2024/02/21 11:47:31;;;;;;;13.80;7.43;;;;;;;;;;5057122;28;20032;-86
2024/02/21 11:49:57;;;;;;;15.55;6.35;;;;;;;;;;5071065;28;20025;-84
2024/02/21 11:52:27;;;;;;;17.20;8.00;;;;;;;;;;5073451;28;20036;-84
2024/02/21 11:54:54;;;;;;;15.25;8.05;;;;;;;;;;5075496;28;20029;-85
2024/02/21 11:57:20;;;;;;;13.75;7.03;;;;;;;;;;5059016;28;20108;-86
2024/02/21 11:59:46;;;;;;;14.95;7.72;;;;;;;;;;5051801;28;20370;-84
2024/02/21 12:02:13;;;;;;;13.52;6.40;;;;;;;;;;5052678;28;20090;-85
2024/02/21 12:04:39;;;;;;;12.43;6.82;;;;;;;;;;5066831;28;20081;-84
2024/02/21 12:07:06;;;;;;;11.55;5.25;;;;;;;;;;5073041;28;20481;-84
2024/02/21 12:09:32;;;;;;;10.55;5.00;;;;;;;;;;5083388;28;20054;-85
2024/02/21 12:11:59;;;;;;;16.05;8.13;;;;;;;;;;5091601;28;20150;-85
2024/02/21 12:14:25;;;;;;;12.48;6.25;;;;;;;;;;5081826;28;20017;-85
2024/02/21 12:16:51;;;;;;;21.73;7.93;;;;;;;;;;5072730;28;20024;-90
2024/02/21 12:19:18;;;;;;;20.38;7.88;;;;;;;;;;5071945;28;20032;-83
2024/02/21 12:21:44;;;;;;;9.68;4.55;;;;;;;;;;5071601;28;20024;-84
2024/02/21 12:24:13;;;;;;;10.75;5.18;;;;;;;;;;5074830;28;20024;-83
2024/02/21 12:26:40;;;;;;;10.43;4.53;;;;;;;;;;5073350;28;20029;-84
2024/02/21 12:29:09;;;;;;;21.65;6.43;;;;;;;;;;5075587;28;20202;-84
2024/02/21 12:31:35;;;;;;;10.70;4.70;;;;;;;;;;5086014;28;20028;-93
2024/02/21 12:34:01;;;;;;;10.93;4.47;;;;;;;;;;5073314;28;20039;-91
2024/02/21 12:36:27;;;;;;;13.52;5.53;;;;;;;;;;5073644;28;20035;-90
2024/02/21 12:38:53;;;;;;;13.55;5.10;;;;;;;;;;5073001;28;20036;-88
2024/02/21 12:41:19;;;;;;;15.32;5.15;;;;;;;;;;5072874;28;20078;-90
2024/02/21 12:43:45;;;;;;;10.18;4.53;;;;;;;;;;5072317;28;20179;-89
2024/02/21 12:46:11;;;;;;;7.47;3.30;;;;;;;;;;5073041;28;20025;-88
2024/02/21 12:48:37;;;;;;;12.77;5.22;;;;;;;;;;5071967;28;20055;-85
2024/02/21 12:51:04;;;;;;;11.75;5.30;;;;;;;;;;5072721;28;20032;-89
2024/02/21 12:53:30;;;;;;;14.93;6.20;;;;;;;;;;5072543;28;20025;-88
2024/02/21 12:55:56;;;;;;;10.68;4.97;;;;;;;;;;5071954;28;20119;-85
2024/02/21 12:58:22;;;;;;;10.15;4.07;;;;;;;;;;5071847;28;20078;-85
2024/02/21 13:00:48;;;;;;;11.38;4.95;;;;;;;;;;5071474;28;20168;-84
2024/02/21 13:03:14;;;;;;;11.48;5.05;;;;;;;;;;5071945;28;20033;-89
2024/02/21 13:05:41;;;;;;;11.02;4.22;;;;;;;;;;5072288;28;20095;-87
2024/02/21 13:08:07;;;;;;;13.98;5.13;;;;;;;;;;5071427;28;20024;-88
2024/02/21 13:10:36;;;;;;;9.63;4.45;;;;;;;;;;5073921;28;20032;-86
2024/02/21 13:13:03;;;;;;;11.87;4.63;;;;;;;;;;5077852;28;20385;-86
2024/02/21 13:15:29;;;;;;;10.63;4.95;;;;;;;;;;5069957;28;20491;-86
2024/02/21 13:17:57;;;;;;;14.18;4.85;;;;;;;;;;5077475;28;20464;-86
2024/02/21 13:20:23;;;;;;;13.70;4.18;;;;;;;;;;5078120;28;20070;-86
2024/02/21 13:22:49;;;;;;;10.60;4.40;;;;;;;;;;5077914;28;20020;-84
2024/02/21 13:25:18;;;;;;;9.50;3.92;;;;;;;;;;5078053;28;20119;-87
2024/02/21 13:27:44;;;;;;;12.05;5.15;;;;;;;;;;5077770;28;20032;-86
2024/02/21 13:30:10;;;;;;;9.82;4.93;;;;;;;;;;5077352;28;20032;-87
2024/02/21 13:32:36;;;;;;;12.93;4.18;;;;;;;;;;5077489;28;20028;-84
2024/02/21 13:35:03;;;;;;;8.43;4.60;;;;;;;;;;5077667;28;20388;-85
2024/02/21 13:37:29;;;;;;;6.47;3.35;;;;;;;;;;5077265;28;20400;-86
2024/02/21 13:39:55;;;;;;;11.68;4.78;;;;;;;;;;5077596;28;20048;-86
2024/02/21 13:42:22;;;;;;;11.00;4.85;;;;;;;;;;5077560;28;20115;-86
2024/02/21 13:44:48;;;;;;;10.05;4.07;;;;;;;;;;5077467;28;20021;-85
2024/02/21 13:47:14;;;;;;;9.48;4.40;;;;;;;;;;5077587;28;20430;-86
2024/02/21 13:49:41;;;;;;;13.27;5.05;;;;;;;;;;5077947;28;20028;-87
2024/02/21 13:52:09;;;;;;;8.60;3.63;;;;;;;;;;5077648;28;20111;-87
2024/02/21 13:54:35;;;;;;;13.05;5.57;;;;;;;;;;5078069;28;20362;-85
2024/02/21 13:57:02;;;;;;;11.05;3.38;;;;;;;;;;5078264;28;20031;-86
2024/02/21 13:59:28;;;;;;;9.18;4.30;;;;;;;;;;5079072;28;20123;-85
2024/02/21 14:01:54;;;;;;;8.45;3.53;;;;;;;;;;5086705;28;20373;-85
2024/02/21 14:04:20;;;;;;;13.52;5.32;;;;;;;;;;5094456;28;20016;-83
2024/02/21 14:06:46;;;;;;;11.65;5.20;;;;;;;;;;5099404;28;20021;-84
2024/02/21 14:09:13;;;;;;;11.85;4.70;;;;;;;;;;5095286;28;20133;-85
2024/02/21 14:11:42;;;;;;;11.10;4.70;;;;;;;;;;5092817;28;20052;-85
2024/02/21 14:14:08;;;;;;;16.63;6.53;;;;;;;;;;5074322;28;20021;-84
2024/02/21 14:16:37;;;;;;;13.25;5.15;;;;;;;;;;5060775;28;20017;-85
2024/02/21 14:19:03;;;;;;;11.52;4.18;;;;;;;;;;5056989;28;20063;-85
2024/02/21 14:21:29;;;;;;;11.65;4.05;;;;;;;;;;5056835;28;20029;-87